createdAt,value
2023-04-28T00:00:05.693Z,49.61
2023-04-28T00:02:34.367Z,50.17
2023-04-28T00:05:02.534Z,50.91
2023-04-28T00:07:30.457Z,51.26
2023-04-28T00:09:58.275Z,49.17
2023-04-28T00:12:26.243Z,49.95
2023-04-28T00:14:54.755Z,51.71
2023-04-28T00:17:24.317Z,47.56
2023-04-28T00:19:53.004Z,47.91
2023-04-28T00:22:20.963Z,47.30
2023-04-28T00:24:48.955Z,47.22
2023-04-28T00:27:16.836Z,47.47
2023-04-28T00:29:44.727Z,47.43
2023-04-28T00:32:13.633Z,46.96
2023-04-28T00:34:42.882Z,46.79
2023-04-28T00:37:10.842Z,46.49
2023-04-28T00:39:38.728Z,45.72
2023-04-28T00:42:06.694Z,47.18
2023-04-28T00:44:34.613Z,48.02
2023-04-28T00:47:02.875Z,48.90
2023-04-28T00:49:31.592Z,47.55
2023-04-28T00:52:03.719Z,47.29
2023-04-28T00:54:31.853Z,47.39
2023-04-28T00:56:59.922Z,48.30
2023-04-28T00:59:27.816Z,47.46
2023-04-28T01:01:56.315Z,49.80
2023-04-28T01:04:24.864Z,46.83
2023-04-28T01:06:54.653Z,50.20
2023-04-28T01:09:24.062Z,48.70
2023-04-28T01:11:53.381Z,51.63
2023-04-28T01:14:43.540Z,49.38
2023-04-28T01:17:11.923Z,51.12
2023-04-28T01:19:39.888Z,50.95
2023-04-28T01:22:10.578Z,50.75
2023-04-28T01:24:40.116Z,50.42
2023-04-28T01:27:09.105Z,49.92
2023-04-28T01:29:39.157Z,51.38
2023-04-28T01:32:07.286Z,52.28
2023-04-28T01:34:35.626Z,52.67
2023-04-28T01:37:06.926Z,51.66
2023-04-28T01:39:35.045Z,53.01
2023-04-28T01:42:06.432Z,52.94
2023-04-28T01:44:35.017Z,53.04
2023-04-28T01:47:02.882Z,53.01
2023-04-28T01:49:30.792Z,51.78
2023-04-28T01:51:58.701Z,51.01
2023-04-28T01:54:27.487Z,53.03
2023-04-28T01:56:55.790Z,53.74
2023-04-28T01:59:25.542Z,53.39
2023-04-28T02:01:55.081Z,51.46
2023-04-28T02:04:23.251Z,50.64
2023-04-28T02:06:51.147Z,49.60
2023-04-28T02:09:19.040Z,50.63
2023-04-28T02:11:46.904Z,52.09
2023-04-28T02:14:15.180Z,51.30
2023-04-28T02:16:44.494Z,51.04
2023-04-28T02:19:14.126Z,50.54
2023-04-28T02:21:42.942Z,50.60
2023-04-28T02:24:10.947Z,50.86
2023-04-28T02:26:38.832Z,50.67
2023-04-28T02:29:06.723Z,52.17
2023-04-28T02:31:34.625Z,51.53
2023-04-28T02:34:03.939Z,51.14
2023-04-28T02:36:31.913Z,51.41
2023-04-28T02:38:59.908Z,52.17
2023-04-28T02:41:29.910Z,50.93
2023-04-28T02:43:57.799Z,51.53
2023-04-28T02:46:25.742Z,51.91
2023-04-28T02:48:53.732Z,52.21
2023-04-28T02:51:23.053Z,51.76
2023-04-28T02:53:51.049Z,52.70
2023-04-28T02:56:19.157Z,53.03
2023-04-28T02:58:47.278Z,52.97
2023-04-28T03:01:15.314Z,53.16
2023-04-28T03:03:43.337Z,52.82
2023-04-28T03:06:11.424Z,51.86
2023-04-28T03:08:40.824Z,52.31
2023-04-28T03:11:08.792Z,52.82
2023-04-28T03:13:36.669Z,52.84
2023-04-28T03:16:06.281Z,51.95
2023-04-28T03:18:34.249Z,52.59
2023-04-28T03:21:02.410Z,52.65
2023-04-28T03:23:30.754Z,53.15
2023-04-28T03:26:00.062Z,53.16
2023-04-28T03:28:28.039Z,54.14
2023-04-28T03:30:56.049Z,54.00
2023-04-28T03:33:24.202Z,53.27
2023-04-28T03:35:54.255Z,54.69
2023-04-28T03:38:22.512Z,53.46
2023-04-28T03:40:50.455Z,53.72
2023-04-28T03:43:25.372Z,54.32
2023-04-28T03:46:17.682Z,53.51
2023-04-28T03:48:46.636Z,53.29
2023-04-28T03:51:14.792Z,53.10
2023-04-28T03:53:43.064Z,53.19
2023-04-28T03:56:11.305Z,53.25
2023-04-28T03:58:41.780Z,53.42
2023-04-28T04:01:09.697Z,53.62
2023-04-28T04:03:37.887Z,53.26
2023-04-28T04:06:06.724Z,52.88
2023-04-28T04:08:34.758Z,53.39
2023-04-28T04:11:02.734Z,52.60
2023-04-28T04:13:31.374Z,53.05
2023-04-28T04:16:01.022Z,53.26
2023-04-28T04:18:29.321Z,53.12
2023-04-28T04:21:12.114Z,52.20
2023-04-28T04:23:40.910Z,52.19
2023-04-28T04:26:08.803Z,52.51
2023-04-28T04:28:36.908Z,52.70
2023-04-28T04:31:08.404Z,52.29
2023-04-28T04:33:37.378Z,52.65
2023-04-28T04:36:08.116Z,53.02
2023-04-28T04:38:36.119Z,52.93
2023-04-28T04:41:13.875Z,53.12
2023-04-28T04:43:41.837Z,52.65
2023-04-28T04:46:11.120Z,53.17
2023-04-28T04:48:39.271Z,52.56
2023-04-28T04:51:07.260Z,52.08
2023-04-28T04:53:36.009Z,52.33
2023-04-28T04:56:04.069Z,52.22
2023-04-28T04:58:33.719Z,52.35
2023-04-28T05:01:27.645Z,53.03
2023-04-28T05:03:55.847Z,52.26
2023-04-28T05:06:24.161Z,51.70
2023-04-28T05:08:52.093Z,51.72
2023-04-28T05:11:20.119Z,51.40
2023-04-28T05:13:48.390Z,51.55
2023-04-28T05:16:16.550Z,51.11
2023-04-28T05:18:57.325Z,51.03
2023-04-28T05:21:25.196Z,50.85
2023-04-28T05:23:53.770Z,50.35
2023-04-28T05:26:22.683Z,50.57
2023-04-28T05:28:54.342Z,50.65
2023-04-28T05:31:22.312Z,48.58
2023-04-28T05:33:50.580Z,47.51
2023-04-28T05:36:19.867Z,47.43
2023-04-28T05:38:47.944Z,46.22
2023-04-28T05:41:15.914Z,45.18
2023-04-28T05:43:44.019Z,45.40
2023-04-28T05:46:28.428Z,43.82
2023-04-28T05:48:58.631Z,44.40
2023-04-28T05:51:29.244Z,44.78
2023-04-28T05:53:58.124Z,45.92
2023-04-28T05:56:27.962Z,45.96
2023-04-28T05:58:56.852Z,45.86
2023-04-28T06:01:24.754Z,44.92
2023-04-28T06:03:53.838Z,45.79
2023-04-28T06:06:22.226Z,46.29
2023-04-28T06:08:51.994Z,45.77
2023-04-28T06:11:22.342Z,44.87
2023-04-28T06:13:51.430Z,45.28
2023-04-28T06:16:20.186Z,44.43
2023-04-28T06:18:49.792Z,44.23
2023-04-28T06:21:21.244Z,43.77
2023-04-28T06:23:49.269Z,43.46
2023-04-28T06:26:19.075Z,43.33
2023-04-28T06:28:47.082Z,43.68
2023-04-28T06:31:15.192Z,42.52
2023-04-28T06:33:43.107Z,42.31
2023-04-28T06:36:13.833Z,43.12
2023-04-28T06:38:42.919Z,42.59
2023-04-28T06:41:11.609Z,41.87
2023-04-28T06:43:42.111Z,41.58
2023-04-28T06:46:15.528Z,41.56
2023-04-28T06:48:44.148Z,41.69
2023-04-28T06:51:12.402Z,40.86
2023-04-28T06:53:40.734Z,41.57
2023-04-28T06:56:11.206Z,41.30
2023-04-28T06:58:39.994Z,41.13
2023-04-28T07:01:09.342Z,40.52
2023-04-28T07:03:37.419Z,39.22
2023-04-28T07:06:06.575Z,40.33
2023-04-28T07:08:34.506Z,39.95
2023-04-28T07:11:04.359Z,39.88
2023-04-28T07:13:32.763Z,38.91
2023-04-28T07:16:00.929Z,39.29
2023-04-28T07:18:30.218Z,39.53
2023-04-28T07:20:58.136Z,39.63
2023-04-28T07:23:26.033Z,39.96
2023-04-28T07:30:19.299Z,38.84
2023-04-28T07:32:55.025Z,38.39
2023-04-28T07:35:24.379Z,38.35
2023-04-28T07:37:52.288Z,38.20
2023-04-28T07:40:20.524Z,37.75
2023-04-28T07:42:48.573Z,37.39
2023-04-28T07:45:17.041Z,37.56
2023-04-28T07:47:44.973Z,37.97
2023-04-28T07:50:13.344Z,38.78
2023-04-28T07:52:43.116Z,39.48
2023-04-28T07:55:11.059Z,38.21
2023-04-28T07:57:41.049Z,38.92
2023-04-28T08:00:11.538Z,39.15
2023-04-28T08:02:42.209Z,39.33
2023-04-28T08:05:11.059Z,38.64
2023-04-28T08:07:39.151Z,39.76
2023-04-28T08:10:10.632Z,39.56
2023-04-28T08:12:39.185Z,39.43
2023-04-28T08:15:08.299Z,38.94
2023-04-28T08:17:36.520Z,38.19
2023-04-28T08:20:05.857Z,38.40
2023-04-28T08:22:33.903Z,37.55
2023-04-28T08:25:01.985Z,37.76
2023-04-28T08:27:31.966Z,38.74
2023-04-28T08:29:59.855Z,39.15
2023-04-28T08:32:27.905Z,38.41
2023-04-28T08:34:55.918Z,38.10
2023-04-28T08:37:23.854Z,37.68
2023-04-28T08:39:52.794Z,37.35
2023-04-28T08:42:20.747Z,37.44
2023-04-28T08:44:52.798Z,38.12
2023-04-28T08:47:24.011Z,37.94
2023-04-28T08:49:53.707Z,37.63
2023-04-28T08:52:22.062Z,37.07
2023-04-28T08:54:51.789Z,36.58
2023-04-28T08:57:22.413Z,37.37
2023-04-28T08:59:51.815Z,36.51
2023-04-28T09:02:21.494Z,36.49
2023-04-28T09:04:49.870Z,35.33
2023-04-28T09:07:18.121Z,35.29
2023-04-28T09:09:46.060Z,35.63
2023-04-28T09:12:14.031Z,35.75
2023-04-28T09:14:42.008Z,35.74
2023-04-28T09:17:16.511Z,36.44
2023-04-28T09:19:44.466Z,35.93
2023-04-28T09:22:24.730Z,35.66
2023-04-28T09:24:55.303Z,35.15
2023-04-28T09:27:28.860Z,34.31
2023-04-28T09:29:57.030Z,33.75
2023-04-28T09:32:28.143Z,34.01
2023-04-28T09:34:57.649Z,33.20
2023-04-28T09:37:27.212Z,32.91
2023-04-28T09:39:56.353Z,32.32
2023-04-28T09:42:35.271Z,31.87
2023-04-28T09:45:03.875Z,32.26
2023-04-28T09:47:35.228Z,31.60
2023-04-28T09:50:05.176Z,32.60
2023-04-28T09:52:34.624Z,32.43
2023-04-28T09:55:03.389Z,32.54
2023-04-28T09:57:32.852Z,32.87
2023-04-28T10:00:01.511Z,33.10
2023-04-28T10:05:02.159Z,33.20
2023-04-28T10:07:34.865Z,32.59
2023-04-28T10:10:04.297Z,32.52
2023-04-28T10:12:34.119Z,31.46
2023-04-28T10:15:03.405Z,32.41
2023-04-28T10:17:31.585Z,31.07
2023-04-28T10:20:01.274Z,31.44
2023-04-28T10:22:43.284Z,30.55
2023-04-28T10:25:26.252Z,30.47
2023-04-28T10:27:55.218Z,29.23
2023-04-28T10:30:28.236Z,31.54
2023-04-28T10:33:26.897Z,31.52
2023-04-28T10:35:56.538Z,31.05
2023-04-28T10:38:24.728Z,31.21
2023-04-28T10:40:53.798Z,31.40
2023-04-28T10:43:41.883Z,30.30
2023-04-28T10:46:11.667Z,29.34
2023-04-28T10:48:57.845Z,30.50
2023-04-28T10:51:29.861Z,31.04
2023-04-28T10:54:17.878Z,30.72
2023-04-28T10:57:22.945Z,32.87
2023-04-28T10:59:51.505Z,30.78
2023-04-28T11:02:43.897Z,31.96
2023-04-28T11:05:16.599Z,32.23
2023-04-28T11:08:29.942Z,30.94
2023-04-28T11:11:18.483Z,30.38
2023-04-28T11:13:48.051Z,30.43
2023-04-28T11:16:18.287Z,30.58
2023-04-28T11:18:55.879Z,30.00
2023-04-28T11:21:25.839Z,32.44
2023-04-28T11:23:53.721Z,30.63
2023-04-28T11:26:24.361Z,31.03
2023-04-28T11:28:54.041Z,32.32
2023-04-28T11:31:24.132Z,31.55
2023-04-28T11:33:59.174Z,31.14
2023-04-28T11:36:29.182Z,31.19
2023-04-28T11:38:57.950Z,31.30
2023-04-28T11:41:27.833Z,31.85
2023-04-28T11:43:56.026Z,32.03
2023-04-28T11:46:26.050Z,30.99
2023-04-28T11:49:05.643Z,31.53
2023-04-28T11:51:38.854Z,31.49
2023-04-28T11:54:08.002Z,30.79
2023-04-28T11:56:40.226Z,30.99
2023-04-28T11:59:10.678Z,31.55
2023-04-28T12:01:47.117Z,32.34
2023-04-28T12:04:15.800Z,32.48
2023-04-28T12:06:44.234Z,33.03
2023-04-28T12:09:21.329Z,32.80
2023-04-28T12:12:03.023Z,31.71
2023-04-28T12:14:32.060Z,32.92
2023-04-28T12:17:00.416Z,33.85
2023-04-28T12:19:28.900Z,33.01
2023-04-28T12:22:01.870Z,32.07
2023-04-28T12:24:29.970Z,31.65
2023-04-28T12:27:18.025Z,32.34
2023-04-28T12:29:47.333Z,31.66
2023-04-28T12:32:16.103Z,32.79
2023-04-28T12:34:46.729Z,32.92
2023-04-28T12:37:15.296Z,31.47
2023-04-28T12:39:44.002Z,31.71
2023-04-28T12:42:12.261Z,31.71
2023-04-28T12:44:41.544Z,32.28
2023-04-28T12:47:10.972Z,32.98
2023-04-28T12:49:39.632Z,32.71
2023-04-28T12:52:07.937Z,32.11
2023-04-28T12:54:35.947Z,32.73
2023-04-28T12:57:04.175Z,32.88
2023-04-28T12:59:32.801Z,33.46
2023-04-28T13:02:02.196Z,33.40
2023-04-28T13:04:31.229Z,33.28
2023-04-28T13:07:00.029Z,32.92
2023-04-28T13:09:28.193Z,32.39
2023-04-28T13:11:56.110Z,33.16
2023-04-28T13:14:24.223Z,32.63
2023-04-28T13:16:53.635Z,32.11
2023-04-28T13:19:23.173Z,32.96
2023-04-28T13:21:51.191Z,32.65
2023-04-28T13:24:19.081Z,32.49
2023-04-28T13:26:47.142Z,33.30
2023-04-28T13:29:15.385Z,32.56
2023-04-28T13:31:43.337Z,32.79
2023-04-28T13:34:15.992Z,33.07
2023-04-28T13:36:48.137Z,32.64
2023-04-28T13:39:16.186Z,33.30
2023-04-28T13:41:44.270Z,33.18
2023-04-28T13:44:12.525Z,33.24
2023-04-28T13:46:40.684Z,34.46
2023-04-28T13:49:09.127Z,33.77
2023-04-28T13:51:37.837Z,33.88
2023-04-28T13:54:08.878Z,35.21
2023-04-28T13:56:37.546Z,35.22
2023-04-28T13:59:05.527Z,35.08
2023-04-28T14:01:33.600Z,35.49
2023-04-28T14:04:02.357Z,35.69
2023-04-28T14:06:31.140Z,36.26
2023-04-28T14:09:01.261Z,35.80
2023-04-28T14:11:30.709Z,35.95
2023-04-28T14:13:58.563Z,36.69
2023-04-28T14:16:26.507Z,37.00
2023-04-28T14:18:54.447Z,38.23
2023-04-28T14:21:22.320Z,37.55
2023-04-28T14:23:50.350Z,37.92
2023-04-28T14:26:18.715Z,37.72
2023-04-28T14:28:47.982Z,38.16
2023-04-28T14:31:15.993Z,39.08
2023-04-28T14:33:43.861Z,37.82
2023-04-28T14:36:11.802Z,38.27
2023-04-28T14:38:40.390Z,38.13
2023-04-28T14:41:08.428Z,38.52
2023-04-28T14:43:36.376Z,38.61
2023-04-28T14:46:06.141Z,38.99
2023-04-28T14:48:34.950Z,38.83
2023-04-28T14:51:02.873Z,38.73
2023-04-28T14:53:32.114Z,38.82
2023-04-28T14:56:16.842Z,38.56
2023-04-28T14:58:46.346Z,38.40
2023-04-28T15:01:16.011Z,38.53
2023-04-28T15:03:44.552Z,38.57
2023-04-28T15:06:13.345Z,38.59
2023-04-28T15:08:41.349Z,38.64
2023-04-28T15:11:09.521Z,38.70
2023-04-28T15:13:37.672Z,39.83
2023-04-28T15:16:06.095Z,38.98
2023-04-28T15:18:35.524Z,39.83
2023-04-28T15:21:03.542Z,40.50
2023-04-28T15:23:31.540Z,40.78
2023-04-28T15:25:59.486Z,39.82
2023-04-28T15:28:27.683Z,39.57
2023-04-28T15:30:55.595Z,39.71
2023-04-28T15:33:24.262Z,40.30
2023-04-28T15:35:53.580Z,40.68
2023-04-28T15:38:21.991Z,42.90
2023-04-28T15:40:49.927Z,44.38
2023-04-28T15:43:18.079Z,46.16
2023-04-28T15:45:47.021Z,46.53
2023-04-28T15:48:15.390Z,47.49
2023-04-28T15:50:43.571Z,47.43
2023-04-28T15:53:12.835Z,46.04
2023-04-28T15:55:40.793Z,46.27
2023-04-28T15:58:09.763Z,47.28
2023-04-28T16:00:37.711Z,46.08
2023-04-28T16:03:05.920Z,45.75
2023-04-28T16:05:34.005Z,45.95
2023-04-28T16:08:01.897Z,46.25
2023-04-28T16:10:31.364Z,46.28
2023-04-28T16:12:59.245Z,47.89
2023-04-28T16:15:27.218Z,47.07
2023-04-28T16:17:56.962Z,46.48
2023-04-28T16:20:25.095Z,48.13
2023-04-28T16:22:53.367Z,48.19
2023-04-28T16:25:21.309Z,49.56
2023-04-28T16:27:50.929Z,48.71
2023-04-28T16:30:18.796Z,48.12
2023-04-28T16:32:47.065Z,48.48
2023-04-28T16:35:15.602Z,48.70
2023-04-28T16:37:44.079Z,49.68
2023-04-28T16:40:13.319Z,50.37
2023-04-28T16:42:42.097Z,49.25
2023-04-28T16:45:13.080Z,50.86
2023-04-28T16:47:43.749Z,50.26
2023-04-28T16:50:14.757Z,50.41
2023-04-28T16:52:43.281Z,50.39
2023-04-28T16:55:11.621Z,50.48
2023-04-28T16:57:39.598Z,50.38
2023-04-28T17:00:09.370Z,50.12
2023-04-28T17:02:38.917Z,49.85
2023-04-28T17:05:07.563Z,50.08
2023-04-28T17:07:35.747Z,50.02
2023-04-28T17:10:04.297Z,50.40
2023-04-28T17:12:32.409Z,50.96
2023-04-28T17:15:00.259Z,50.30
2023-04-28T17:17:29.108Z,50.79
2023-04-28T17:19:59.860Z,50.80
2023-04-28T17:22:27.790Z,51.17
2023-04-28T17:24:55.730Z,51.66
2023-04-28T17:27:23.625Z,52.94
2023-04-28T17:29:52.037Z,53.88
2023-04-28T17:32:20.037Z,52.70
2023-04-28T17:34:48.128Z,57.16
2023-04-28T17:37:17.357Z,56.75
2023-04-28T17:39:45.217Z,57.09
2023-04-28T17:42:13.069Z,57.68
2023-04-28T17:44:40.934Z,59.52
2023-04-28T17:47:08.841Z,59.95
2023-04-28T17:49:36.787Z,59.72
2023-04-28T17:52:04.733Z,60.14
2023-04-28T17:54:34.196Z,61.68
2023-04-28T17:57:02.343Z,59.40
2023-04-28T17:59:30.213Z,60.80
2023-04-28T18:01:59.017Z,60.68
2023-04-28T18:04:27.021Z,60.63
2023-04-28T18:06:54.919Z,60.42
2023-04-28T18:09:22.820Z,60.49
2023-04-28T18:11:53.461Z,60.42
2023-04-28T18:14:21.340Z,60.76
2023-04-28T18:16:49.330Z,61.01
2023-04-28T18:19:17.337Z,61.09
2023-04-28T18:21:45.196Z,62.24
2023-04-28T18:24:13.118Z,63.52
2023-04-28T18:26:41.121Z,62.29
2023-04-28T18:29:10.378Z,62.84
2023-04-28T18:31:38.299Z,64.34
2023-04-28T18:34:06.523Z,63.10
2023-04-28T18:36:35.674Z,65.04
2023-04-28T18:39:06.222Z,62.05
2023-04-28T18:41:35.718Z,62.71
2023-04-28T18:44:04.048Z,63.11
2023-04-28T18:46:33.687Z,63.18
2023-04-28T18:49:02.885Z,63.76
2023-04-28T18:51:30.754Z,63.46
2023-04-28T18:53:59.561Z,63.36
2023-04-28T18:56:27.670Z,63.05
2023-04-28T18:58:55.522Z,65.57
2023-04-28T19:01:24.721Z,63.87
2023-04-28T19:03:54.402Z,63.75
2023-04-28T19:06:22.864Z,63.27
2023-04-28T19:08:50.697Z,62.85
2023-04-28T19:11:18.644Z,62.98
2023-04-28T19:13:46.478Z,63.35
2023-04-28T19:16:14.712Z,62.47
2023-04-28T19:18:42.776Z,61.63
2023-04-28T19:21:13.776Z,61.96
2023-04-28T19:23:41.829Z,62.17
2023-04-28T19:26:10.513Z,61.46
2023-04-28T19:28:38.447Z,62.32
2023-04-28T19:31:06.337Z,61.91
2023-04-28T19:33:34.254Z,62.42
2023-04-28T19:36:03.260Z,62.53
2023-04-28T19:38:32.544Z,62.51
2023-04-28T19:41:01.874Z,62.39
2023-04-28T19:43:30.676Z,62.66
2023-04-28T19:45:58.668Z,62.09
2023-04-28T19:48:27.172Z,61.44
2023-04-28T19:50:55.163Z,62.45
2023-04-28T19:53:23.471Z,62.36
2023-04-28T19:55:52.799Z,61.52
2023-04-28T19:58:21.389Z,60.66
2023-04-28T20:00:49.291Z,62.28
2023-04-28T20:03:17.535Z,62.11
2023-04-28T20:05:45.969Z,61.18
2023-04-28T20:08:13.918Z,61.90
2023-04-28T20:10:42.409Z,62.38
2023-04-28T20:13:11.664Z,61.82
2023-04-28T20:15:40.187Z,61.17
2023-04-28T20:18:08.118Z,61.08
2023-04-28T20:20:36.074Z,61.97
2023-04-28T20:23:03.979Z,62.98
2023-04-28T20:25:31.844Z,61.53
2023-04-28T20:27:59.776Z,61.55
2023-04-28T20:30:29.142Z,62.64
2023-04-28T20:32:57.055Z,62.17
2023-04-28T20:35:24.985Z,61.52
2023-04-28T20:37:53.272Z,62.58
2023-04-28T20:40:21.166Z,63.56
2023-04-28T20:42:49.589Z,63.03
2023-04-28T20:45:17.729Z,63.08
2023-04-28T20:47:47.085Z,63.48
2023-04-28T20:50:15.671Z,63.34
2023-04-28T20:52:43.588Z,63.50
2023-04-28T20:55:12.137Z,63.07
2023-04-28T20:57:39.992Z,62.65
2023-04-28T21:00:08.980Z,62.25
2023-04-28T21:02:37.843Z,62.17
2023-04-28T21:05:08.471Z,62.37
2023-04-28T21:07:36.337Z,62.73
2023-04-28T21:10:04.447Z,62.54
2023-04-28T21:12:32.329Z,62.59
2023-04-28T21:15:00.830Z,63.16
2023-04-28T21:17:28.944Z,62.82
2023-04-28T21:19:57.463Z,62.36
2023-04-28T21:22:27.760Z,61.87
2023-04-28T21:24:55.901Z,62.56
2023-04-28T21:27:24.052Z,62.27
2023-04-28T21:29:52.848Z,62.78
2023-04-28T21:32:20.973Z,62.90
2023-04-28T21:34:49.592Z,62.93
2023-04-28T21:37:17.669Z,62.97
2023-04-28T21:39:47.039Z,63.52
2023-04-28T21:42:14.957Z,63.06
2023-04-28T21:44:42.906Z,63.70
2023-04-28T21:47:10.836Z,62.70
2023-04-28T21:49:38.773Z,62.27
2023-04-28T21:52:06.829Z,62.99
2023-04-28T21:54:34.822Z,62.14
2023-04-28T21:57:04.128Z,63.22
2023-04-28T21:59:31.961Z,63.05
2023-04-28T22:02:00.074Z,62.86
2023-04-28T22:04:28.948Z,64.22
2023-04-28T22:06:57.256Z,63.30
2023-04-28T22:09:26.208Z,62.96
2023-04-28T22:11:54.133Z,63.40
2023-04-28T22:14:39.501Z,63.48
2023-04-28T22:17:08.770Z,64.74
2023-04-28T22:19:36.701Z,65.28
2023-04-28T22:22:04.601Z,64.99
2023-04-28T22:24:32.732Z,64.27
2023-04-28T22:27:00.600Z,64.04
2023-04-28T22:29:29.950Z,64.27
2023-04-28T22:31:58.625Z,63.60
2023-04-28T22:34:26.570Z,63.45
2023-04-28T22:36:54.489Z,63.56
2023-04-28T22:39:24.960Z,64.49
2023-04-28T22:41:53.061Z,64.24
2023-04-28T22:44:21.172Z,64.24
2023-04-28T22:46:50.422Z,64.84
2023-04-28T22:49:21.089Z,64.11
2023-04-28T22:51:48.974Z,64.30
2023-04-28T22:54:16.856Z,64.26
2023-04-28T22:56:44.733Z,63.18
2023-04-28T22:59:12.668Z,63.77
2023-04-28T23:01:40.873Z,63.93
2023-04-28T23:04:10.426Z,64.72
2023-04-28T23:06:38.734Z,65.30
2023-04-28T23:09:07.089Z,64.20
2023-04-28T23:11:34.983Z,64.46
2023-04-28T23:14:03.277Z,64.39
2023-04-28T23:16:31.197Z,65.08
2023-04-28T23:18:59.179Z,65.05
2023-04-28T23:21:29.405Z,64.83
2023-04-28T23:23:57.485Z,64.20
2023-04-28T23:26:26.274Z,64.22
2023-04-28T23:28:54.281Z,63.77
2023-04-28T23:31:22.474Z,64.49
2023-04-28T23:33:50.365Z,65.39
2023-04-28T23:36:18.549Z,66.35
2023-04-28T23:38:47.869Z,65.29
2023-04-28T23:41:16.072Z,65.52
2023-04-28T23:43:43.930Z,64.20
2023-04-28T23:46:11.894Z,64.08
2023-04-28T23:48:39.903Z,64.35
2023-04-28T23:51:07.804Z,64.09
2023-04-28T23:53:35.725Z,64.29
2023-04-28T23:56:05.256Z,63.96
2023-04-28T23:58:33.191Z,64.74
